NK80 weather

Rainbow Air Heliport
Niagara Falls, New York, United States

Public forecast

Using degrees Fahrenheit for public forecast. Weather courtesy of forecast.io.

Closest aviation weather report (METAR) to Rainbow Air Heliport

Closest report is Niagara Falls International Airport, 5.2 nm (9.6 km) ENE. Retrieved 2019/11/11 18:53 UTC (48 minutes ago):

KIAG 111853Z 06016KT 1/2SM R28R/5000VP6000FT -SN FZFG FEW008 OVC012 M03/M04 A3009 RMK AO2 SLP204 P0001 T10281039

Closest aviation forecast (TAF) to Rainbow Air Heliport

Closest forecast is Niagara Falls International Airport, 5.2 nm (9.6 km) ENE. Retrieved 2019/11/11 18:27 UTC (1 hour ago):

TAF KIAG 111723Z 1118/1218 05013KT 1SM -SN OVC015 FM120000 04013KT 1/2SM SN OVC008 FM120600 02014G22KT 1 1/2SM -SN OVC015 FM121000 35012KT 4SM -SHSN OVC020 FM121300 34012KT P6SM OVC025 FM121600 32013KT P6SM BKN045